sensor_id;sensor_type;location;lat;lon;timestamp;pressure;altitude;pressure_sealevel;temperature;humidity
75594;BME280;64176;49.156;7.810;2023-02-11T00:02:38;101299.97;;;-1.79;83.81
75594;BME280;64176;49.156;7.810;2023-02-11T00:05:21;101304.75;;;-1.83;83.87
75594;BME280;64176;49.156;7.810;2023-02-11T00:08:05;101307.84;;;-1.95;85.01
75594;BME280;64176;49.156;7.810;2023-02-11T00:10:56;101299.78;;;-1.91;85.17
75594;BME280;64176;49.156;7.810;2023-02-11T00:13:42;101295.31;;;-1.94;85.00
75594;BME280;64176;49.156;7.810;2023-02-11T00:16:28;101301.09;;;-1.76;84.49
75594;BME280;64176;49.156;7.810;2023-02-11T00:19:13;101304.75;;;-1.83;85.23
75594;BME280;64176;49.156;7.810;2023-02-11T00:21:57;101298.97;;;-1.71;84.84
75594;BME280;64176;49.156;7.810;2023-02-11T00:24:41;101297.50;;;-1.59;84.24
75594;BME280;64176;49.156;7.810;2023-02-11T00:27:25;101283.63;;;-1.73;84.52
75594;BME280;64176;49.156;7.810;2023-02-11T00:30:10;101293.72;;;-1.83;86.36
75594;BME280;64176;49.156;7.810;2023-02-11T00:32:56;101286.19;;;-1.63;85.18
75594;BME280;64176;49.156;7.810;2023-02-11T00:35:40;101280.97;;;-1.64;85.74
75594;BME280;64176;49.156;7.810;2023-02-11T00:38:25;101284.09;;;-1.48;85.07
75594;BME280;64176;49.156;7.810;2023-02-11T00:41:09;101284.47;;;-1.43;84.58
75594;BME280;64176;49.156;7.810;2023-02-11T00:43:53;101275.03;;;-1.65;85.17
75594;BME280;64176;49.156;7.810;2023-02-11T00:46:37;101278.63;;;-1.53;85.53
75594;BME280;64176;49.156;7.810;2023-02-11T00:49:21;101277.22;;;-1.59;85.81
75594;BME280;64176;49.156;7.810;2023-02-11T00:52:06;101274.31;;;-1.43;84.92
75594;BME280;64176;49.156;7.810;2023-02-11T00:54:51;101261.69;;;-1.33;84.32
75594;BME280;64176;49.156;7.810;2023-02-11T00:57:36;101262.31;;;-1.36;85.06
75594;BME280;64176;49.156;7.810;2023-02-11T01:00:23;101250.69;;;-1.63;86.11
75594;BME280;64176;49.156;7.810;2023-02-11T01:03:07;101262.66;;;-1.41;85.39
75594;BME280;64176;49.156;7.810;2023-02-11T01:05:52;101264.44;;;-1.40;85.05
75594;BME280;64176;49.156;7.810;2023-02-11T01:08:38;101266.34;;;-1.38;85.62
75594;BME280;64176;49.156;7.810;2023-02-11T01:11:23;101267.38;;;-1.36;85.25
75594;BME280;64176;49.156;7.810;2023-02-11T01:14:06;101266.25;;;-1.29;84.65
75594;BME280;64176;49.156;7.810;2023-02-11T01:16:50;101213.72;;;-1.51;85.03
75594;BME280;64176;49.156;7.810;2023-02-11T01:19:36;101245.16;;;-1.49;85.46
75594;BME280;64176;49.156;7.810;2023-02-11T01:22:20;101246.94;;;-1.48;86.08
75594;BME280;64176;49.156;7.810;2023-02-11T01:25:05;101250.38;;;-1.47;85.97
75594;BME280;64176;49.156;7.810;2023-02-11T01:27:50;101246.41;;;-1.54;86.52
75594;BME280;64176;49.156;7.810;2023-02-11T01:30:34;101251.41;;;-1.45;85.77
75594;BME280;64176;49.156;7.810;2023-02-11T01:33:18;101252.66;;;-1.40;86.32
75594;BME280;64176;49.156;7.810;2023-02-11T01:36:04;101257.56;;;-1.52;86.36
75594;BME280;64176;49.156;7.810;2023-02-11T01:38:49;101249.22;;;-1.40;86.01
75594;BME280;64176;49.156;7.810;2023-02-11T01:41:37;101255.47;;;-1.37;85.35
75594;BME280;64176;49.156;7.810;2023-02-11T01:44:31;101257.84;;;-1.49;85.99
75594;BME280;64176;49.156;7.810;2023-02-11T01:47:19;101258.13;;;-1.45;85.12
75594;BME280;64176;49.156;7.810;2023-02-11T01:50:05;101257.25;;;-1.36;84.98
75594;BME280;64176;49.156;7.810;2023-02-11T01:52:49;101260.88;;;-1.42;85.66
75594;BME280;64176;49.156;7.810;2023-02-11T01:55:34;101259.16;;;-1.33;85.83
75594;BME280;64176;49.156;7.810;2023-02-11T01:58:38;101258.13;;;-1.35;85.83
75594;BME280;64176;49.156;7.810;2023-02-11T02:01:25;101258.06;;;-1.66;86.39
75594;BME280;64176;49.156;7.810;2023-02-11T02:04:10;101253.19;;;-1.44;85.49
75594;BME280;64176;49.156;7.810;2023-02-11T02:07:00;101245.44;;;-1.45;85.81
75594;BME280;64176;49.156;7.810;2023-02-11T02:09:48;101225.03;;;-1.37;86.15
75594;BME280;64176;49.156;7.810;2023-02-11T02:12:35;101221.13;;;-1.33;85.23
75594;BME280;64176;49.156;7.810;2023-02-11T02:34:02;101210.56;;;-1.48;86.37
75594;BME280;64176;49.156;7.810;2023-02-11T02:36:57;101205.31;;;-1.80;87.33
75594;BME280;64176;49.156;7.810;2023-02-11T02:39:44;101190.44;;;-1.86;87.70
75594;BME280;64176;49.156;7.810;2023-02-11T02:42:31;101171.94;;;-1.95;88.20
75594;BME280;64176;49.156;7.810;2023-02-11T02:45:18;101166.69;;;-1.77;86.83
75594;BME280;64176;49.156;7.810;2023-02-11T02:48:02;101173.16;;;-1.61;86.58
75594;BME280;64176;49.156;7.810;2023-02-11T02:50:51;101173.38;;;-1.78;87.15
75594;BME280;64176;49.156;7.810;2023-02-11T02:59:42;101174.16;;;-1.69;86.72
75594;BME280;64176;49.156;7.810;2023-02-11T03:02:57;101176.84;;;-1.57;86.21
75594;BME280;64176;49.156;7.810;2023-02-11T03:05:54;101178.63;;;-1.56;86.39
75594;BME280;64176;49.156;7.810;2023-02-11T03:08:41;101171.50;;;-1.60;86.21
75594;BME280;64176;49.156;7.810;2023-02-11T03:11:29;101184.06;;;-1.52;86.27
75594;BME280;64176;49.156;7.810;2023-02-11T03:14:15;101185.19;;;-1.58;86.65
75594;BME280;64176;49.156;7.810;2023-02-11T03:17:03;101190.75;;;-1.62;87.32
75594;BME280;64176;49.156;7.810;2023-02-11T03:19:51;101195.63;;;-1.45;86.31
75594;BME280;64176;49.156;7.810;2023-02-11T03:22:42;101188.63;;;-1.37;85.88
75594;BME280;64176;49.156;7.810;2023-02-11T03:25:36;101200.03;;;-1.32;85.73
75594;BME280;64176;49.156;7.810;2023-02-11T03:28:43;101195.63;;;-1.35;85.95
75594;BME280;64176;49.156;7.810;2023-02-11T03:34:55;101175.31;;;-1.55;87.26
75594;BME280;64176;49.156;7.810;2023-02-11T03:38:03;101172.88;;;-1.64;87.61
75594;BME280;64176;49.156;7.810;2023-02-11T03:40:47;101178.09;;;-1.42;86.43
75594;BME280;64176;49.156;7.810;2023-02-11T03:43:37;101176.72;;;-1.49;86.67
75594;BME280;64176;49.156;7.810;2023-02-11T03:46:28;101181.78;;;-1.49;86.44
75594;BME280;64176;49.156;7.810;2023-02-11T03:49:17;101184.31;;;-1.38;86.44
75594;BME280;64176;49.156;7.810;2023-02-11T03:52:04;101180.13;;;-1.38;86.54
75594;BME280;64176;49.156;7.810;2023-02-11T03:54:54;101182.28;;;-1.32;86.50
75594;BME280;64176;49.156;7.810;2023-02-11T03:57:39;101173.81;;;-1.33;86.37
75594;BME280;64176;49.156;7.810;2023-02-11T04:00:44;101184.06;;;-1.41;86.34
75594;BME280;64176;49.156;7.810;2023-02-11T04:03:32;101182.81;;;-1.36;86.57
75594;BME280;64176;49.156;7.810;2023-02-11T04:06:16;101190.69;;;-1.33;86.52
75594;BME280;64176;49.156;7.810;2023-02-11T04:08:59;101194.59;;;-1.37;86.58
75594;BME280;64176;49.156;7.810;2023-02-11T04:11:43;101190.16;;;-1.29;86.21
75594;BME280;64176;49.156;7.810;2023-02-11T04:14:27;101182.41;;;-1.21;85.73
75594;BME280;64176;49.156;7.810;2023-02-11T04:17:14;101175.94;;;-1.17;85.88
75594;BME280;64176;49.156;7.810;2023-02-11T04:19:58;101189.94;;;-1.22;86.09
75594;BME280;64176;49.156;7.810;2023-02-11T04:22:44;101180.75;;;-1.20;86.30
75594;BME280;64176;49.156;7.810;2023-02-11T04:25:28;101197.91;;;-1.18;86.03
75594;BME280;64176;49.156;7.810;2023-02-11T04:28:12;101192.59;;;-1.11;86.18
75594;BME280;64176;49.156;7.810;2023-02-11T04:30:56;101192.31;;;-1.14;85.58
75594;BME280;64176;49.156;7.810;2023-02-11T04:33:41;101182.44;;;-1.11;86.08
75594;BME280;64176;49.156;7.810;2023-02-11T04:36:25;101178.34;;;-1.08;86.20
75594;BME280;64176;49.156;7.810;2023-02-11T04:39:09;101174.28;;;-1.06;85.96
75594;BME280;64176;49.156;7.810;2023-02-11T04:41:52;101183.81;;;-1.04;85.94
75594;BME280;64176;49.156;7.810;2023-02-11T04:44:37;101171.63;;;-1.08;86.08
75594;BME280;64176;49.156;7.810;2023-02-11T04:47:21;101161.00;;;-1.14;86.78
75594;BME280;64176;49.156;7.810;2023-02-11T04:50:08;101162.16;;;-1.11;86.58
75594;BME280;64176;49.156;7.810;2023-02-11T04:52:52;101157.31;;;-1.18;86.73
75594;BME280;64176;49.156;7.810;2023-02-11T04:55:36;101153.66;;;-1.11;86.81
75594;BME280;64176;49.156;7.810;2023-02-11T04:58:20;101158.06;;;-1.39;87.03
75594;BME280;64176;49.156;7.810;2023-02-11T05:01:12;101153.00;;;-1.19;86.67
75594;BME280;64176;49.156;7.810;2023-02-11T05:03:59;101142.72;;;-1.10;86.19
75594;BME280;64176;49.156;7.810;2023-02-11T05:06:46;101129.66;;;-1.15;86.56
75594;BME280;64176;49.156;7.810;2023-02-11T05:09:30;101121.28;;;-1.14;86.40
75594;BME280;64176;49.156;7.810;2023-02-11T05:12:14;101113.44;;;-1.17;86.82
75594;BME280;64176;49.156;7.810;2023-02-11T05:14:58;101114.81;;;-1.20;87.09
75594;BME280;64176;49.156;7.810;2023-02-11T05:17:42;101103.53;;;-1.14;86.49
75594;BME280;64176;49.156;7.810;2023-02-11T05:20:31;101098.50;;;-1.24;87.08
75594;BME280;64176;49.156;7.810;2023-02-11T05:23:17;101097.47;;;-1.36;87.50
75594;BME280;64176;49.156;7.810;2023-02-11T05:26:02;101103.44;;;-1.35;87.42
75594;BME280;64176;49.156;7.810;2023-02-11T05:28:49;101109.41;;;-1.25;87.45
75594;BME280;64176;49.156;7.810;2023-02-11T05:31:33;101103.03;;;-1.20;87.17
75594;BME280;64176;49.156;7.810;2023-02-11T05:34:20;101089.72;;;-1.27;87.51
75594;BME280;64176;49.156;7.810;2023-02-11T05:37:03;101096.59;;;-1.26;87.17
75594;BME280;64176;49.156;7.810;2023-02-11T05:39:50;101116.88;;;-1.26;87.57
75594;BME280;64176;49.156;7.810;2023-02-11T05:42:34;101105.72;;;-1.49;88.00
75594;BME280;64176;49.156;7.810;2023-02-11T05:45:18;101124.75;;;-1.23;87.26
75594;BME280;64176;49.156;7.810;2023-02-11T05:48:02;101128.91;;;-1.14;86.92
75594;BME280;64176;49.156;7.810;2023-02-11T05:50:48;101124.47;;;-1.16;86.93
75594;BME280;64176;49.156;7.810;2023-02-11T05:53:32;101130.03;;;-1.20;87.50
75594;BME280;64176;49.156;7.810;2023-02-11T05:56:17;101146.38;;;-1.06;86.84
75594;BME280;64176;49.156;7.810;2023-02-11T05:59:03;101150.22;;;-1.22;87.35
75594;BME280;64176;49.156;7.810;2023-02-11T06:01:47;101148.44;;;-1.02;86.58
75594;BME280;64176;49.156;7.810;2023-02-11T06:04:31;101158.94;;;-1.08;86.98
75594;BME280;64176;49.156;7.810;2023-02-11T06:07:15;101153.63;;;-1.01;87.06
75594;BME280;64176;49.156;7.810;2023-02-11T06:10:00;101139.53;;;-1.07;87.29
75594;BME280;64176;49.156;7.810;2023-02-11T06:12:43;101145.38;;;-1.08;87.59
75594;BME280;64176;49.156;7.810;2023-02-11T06:15:27;101154.78;;;-1.18;87.77
75594;BME280;64176;49.156;7.810;2023-02-11T06:18:14;101158.03;;;-0.98;87.24
75594;BME280;64176;49.156;7.810;2023-02-11T06:21:05;101141.69;;;-0.92;87.01
75594;BME280;64176;49.156;7.810;2023-02-11T06:23:53;101151.97;;;-1.00;87.15
75594;BME280;64176;49.156;7.810;2023-02-11T06:26:37;101128.88;;;-1.03;87.29
75594;BME280;64176;49.156;7.810;2023-02-11T06:29:23;101135.31;;;-0.87;87.36
75594;BME280;64176;49.156;7.810;2023-02-11T06:32:07;101134.31;;;-0.89;86.98
75594;BME280;64176;49.156;7.810;2023-02-11T06:34:51;101131.78;;;-0.89;86.66
75594;BME280;64176;49.156;7.810;2023-02-11T06:37:37;101146.00;;;-0.91;86.53
75594;BME280;64176;49.156;7.810;2023-02-11T06:40:21;101133.53;;;-0.88;86.74
75594;BME280;64176;49.156;7.810;2023-02-11T06:43:05;101129.47;;;-0.86;87.10
75594;BME280;64176;49.156;7.810;2023-02-11T06:45:53;101129.88;;;-0.91;87.27
75594;BME280;64176;49.156;7.810;2023-02-11T06:48:38;101124.41;;;-0.86;87.25
75594;BME280;64176;49.156;7.810;2023-02-11T06:51:22;101135.59;;;-0.94;87.46
75594;BME280;64176;49.156;7.810;2023-02-11T06:54:06;101133.66;;;-0.86;86.85
75594;BME280;64176;49.156;7.810;2023-02-11T06:56:50;101144.19;;;-0.82;86.79
75594;BME280;64176;49.156;7.810;2023-02-11T06:59:34;101124.53;;;-0.84;86.97
75594;BME280;64176;49.156;7.810;2023-02-11T07:02:18;101132.91;;;-0.85;87.64
75594;BME280;64176;49.156;7.810;2023-02-11T07:05:05;101134.91;;;-0.71;86.74
75594;BME280;64176;49.156;7.810;2023-02-11T07:07:52;101140.34;;;-0.66;86.59
75594;BME280;64176;49.156;7.810;2023-02-11T07:10:36;101135.28;;;-0.66;86.54
75594;BME280;64176;49.156;7.810;2023-02-11T07:13:20;101139.94;;;-0.61;86.73
75594;BME280;64176;49.156;7.810;2023-02-11T07:16:05;101130.81;;;-0.59;86.73
75594;BME280;64176;49.156;7.810;2023-02-11T07:18:50;101135.75;;;-0.60;86.37
75594;BME280;64176;49.156;7.810;2023-02-11T07:21:34;101145.16;;;-0.59;86.87
75594;BME280;64176;49.156;7.810;2023-02-11T07:24:18;101154.16;;;-0.63;86.61
75594;BME280;64176;49.156;7.810;2023-02-11T07:27:03;101160.34;;;-0.49;86.29
75594;BME280;64176;49.156;7.810;2023-02-11T07:29:49;101164.78;;;-0.47;86.22
75594;BME280;64176;49.156;7.810;2023-02-11T07:32:34;101150.56;;;-0.45;86.33
75594;BME280;64176;49.156;7.810;2023-02-11T07:35:18;101160.31;;;-0.39;86.41
75594;BME280;64176;49.156;7.810;2023-02-11T07:38:02;101161.38;;;-0.47;86.79
75594;BME280;64176;49.156;7.810;2023-02-11T07:40:48;101146.88;;;-0.48;86.44
75594;BME280;64176;49.156;7.810;2023-02-11T07:43:33;101167.88;;;-0.29;86.36
75594;BME280;64176;49.156;7.810;2023-02-11T07:46:22;101166.22;;;-0.28;85.74
75594;BME280;64176;49.156;7.810;2023-02-11T07:49:06;101167.75;;;-0.30;86.47
75594;BME280;64176;49.156;7.810;2023-02-11T07:51:50;101165.66;;;-0.14;85.98
75594;BME280;64176;49.156;7.810;2023-02-11T07:54:34;101152.66;;;-0.07;85.77
75594;BME280;64176;49.156;7.810;2023-02-11T07:57:18;101146.50;;;0.01;85.18
75594;BME280;64176;49.156;7.810;2023-02-11T08:00:03;101147.00;;;0.07;85.25
75594;BME280;64176;49.156;7.810;2023-02-11T08:02:56;101144.78;;;0.12;85.17
75594;BME280;64176;49.156;7.810;2023-02-11T08:05:43;101134.63;;;0.12;85.49
75594;BME280;64176;49.156;7.810;2023-02-11T08:08:27;101103.78;;;0.29;84.36
75594;BME280;64176;49.156;7.810;2023-02-11T08:11:17;101123.09;;;0.60;83.54
75594;BME280;64176;49.156;7.810;2023-02-11T08:14:01;101122.44;;;0.63;83.40
75594;BME280;64176;49.156;7.810;2023-02-11T08:16:46;101135.72;;;0.70;83.38
75594;BME280;64176;49.156;7.810;2023-02-11T08:19:30;101139.41;;;0.86;82.99
75594;BME280;64176;49.156;7.810;2023-02-11T08:22:13;101141.00;;;1.07;82.48
75594;BME280;64176;49.156;7.810;2023-02-11T08:25:02;101149.16;;;1.03;82.57
75594;BME280;64176;49.156;7.810;2023-02-11T08:27:46;101149.06;;;1.13;82.51
75594;BME280;64176;49.156;7.810;2023-02-11T08:30:30;101147.63;;;1.17;81.98
75594;BME280;64176;49.156;7.810;2023-02-11T08:33:17;101140.34;;;1.21;82.28
75594;BME280;64176;49.156;7.810;2023-02-11T08:36:16;101139.66;;;1.24;82.05
75594;BME280;64176;49.156;7.810;2023-02-11T08:39:03;101144.75;;;1.35;82.33
75594;BME280;64176;49.156;7.810;2023-02-11T08:41:51;101140.53;;;1.36;81.95
75594;BME280;64176;49.156;7.810;2023-02-11T08:44:38;101139.00;;;1.38;81.26
75594;BME280;64176;49.156;7.810;2023-02-11T08:47:22;101140.31;;;1.44;81.36
75594;BME280;64176;49.156;7.810;2023-02-11T08:50:11;101133.44;;;1.55;81.67
75594;BME280;64176;49.156;7.810;2023-02-11T08:52:55;101134.72;;;1.85;80.65
75594;BME280;64176;49.156;7.810;2023-02-11T08:55:53;101133.16;;;1.99;80.08
75594;BME280;64176;49.156;7.810;2023-02-11T08:58:37;101137.03;;;1.94;80.31
75594;BME280;64176;49.156;7.810;2023-02-11T09:01:24;101132.97;;;2.21;79.93
75594;BME280;64176;49.156;7.810;2023-02-11T09:04:09;101137.53;;;2.38;79.83
75594;BME280;64176;49.156;7.810;2023-02-11T09:06:53;101143.63;;;2.40;79.16
75594;BME280;64176;49.156;7.810;2023-02-11T09:09:37;101144.16;;;2.47;79.47
75594;BME280;64176;49.156;7.810;2023-02-11T09:12:21;101139.94;;;2.48;80.04
75594;BME280;64176;49.156;7.810;2023-02-11T09:15:05;101135.03;;;2.51;79.84
75594;BME280;64176;49.156;7.810;2023-02-11T09:17:52;101134.97;;;2.63;79.16
75594;BME280;64176;49.156;7.810;2023-02-11T09:20:36;101138.34;;;2.75;78.47
75594;BME280;64176;49.156;7.810;2023-02-11T09:23:19;101135.13;;;2.90;77.74
75594;BME280;64176;49.156;7.810;2023-02-11T09:26:08;101133.59;;;3.19;76.44
75594;BME280;64176;49.156;7.810;2023-02-11T09:28:52;101134.78;;;3.50;74.28
75594;BME280;64176;49.156;7.810;2023-02-11T09:31:37;101122.47;;;3.71;73.27
75594;BME280;64176;49.156;7.810;2023-02-11T09:34:21;101119.00;;;3.84;73.78
75594;BME280;64176;49.156;7.810;2023-02-11T09:37:05;101108.25;;;3.89;72.61
75594;BME280;64176;49.156;7.810;2023-02-11T09:39:52;101109.78;;;4.00;73.13
75594;BME280;64176;49.156;7.810;2023-02-11T09:42:50;101111.06;;;4.07;73.12
75594;BME280;64176;49.156;7.810;2023-02-11T09:45:39;101115.81;;;4.29;72.19
75594;BME280;64176;49.156;7.810;2023-02-11T09:48:22;101111.50;;;4.43;71.84
75594;BME280;64176;49.156;7.810;2023-02-11T09:51:19;101119.59;;;4.63;71.44
75594;BME280;64176;49.156;7.810;2023-02-11T09:54:16;101125.50;;;4.77;71.26
75594;BME280;64176;49.156;7.810;2023-02-11T09:57:02;101128.50;;;4.99;70.52
75594;BME280;64176;49.156;7.810;2023-02-11T09:59:46;101128.88;;;5.05;69.89
75594;BME280;64176;49.156;7.810;2023-02-11T10:03:02;101133.72;;;5.16;69.64
75594;BME280;64176;49.156;7.810;2023-02-11T10:09:08;101126.69;;;5.42;68.92
75594;BME280;64176;49.156;7.810;2023-02-11T10:15:12;101123.47;;;5.61;68.24
75594;BME280;64176;49.156;7.810;2023-02-11T10:23:54;101116.16;;;5.83;68.13
75594;BME280;64176;49.156;7.810;2023-02-11T10:26:43;101117.75;;;5.96;68.13
75594;BME280;64176;49.156;7.810;2023-02-11T10:29:37;101126.28;;;5.97;67.67
75594;BME280;64176;49.156;7.810;2023-02-11T10:32:41;101110.88;;;5.97;67.79
75594;BME280;64176;49.156;7.810;2023-02-11T10:35:26;101109.47;;;6.02;67.94
75594;BME280;64176;49.156;7.810;2023-02-11T10:38:16;101107.53;;;5.98;67.77
75594;BME280;64176;49.156;7.810;2023-02-11T10:41:00;101115.63;;;5.89;68.46
75594;BME280;64176;49.156;7.810;2023-02-11T10:43:43;101112.53;;;5.95;68.54
75594;BME280;64176;49.156;7.810;2023-02-11T10:46:32;101117.75;;;5.96;68.15
75594;BME280;64176;49.156;7.810;2023-02-11T10:49:42;101120.63;;;6.02;67.84
75594;BME280;64176;49.156;7.810;2023-02-11T10:52:27;101126.16;;;6.10;68.06
75594;BME280;64176;49.156;7.810;2023-02-11T10:55:23;101122.06;;;6.13;66.77
75594;BME280;64176;49.156;7.810;2023-02-11T10:58:22;101122.06;;;6.13;67.04
75594;BME280;64176;49.156;7.810;2023-02-11T11:01:07;101109.22;;;6.13;67.70
75594;BME280;64176;49.156;7.810;2023-02-11T11:03:51;101112.28;;;6.22;67.27
75594;BME280;64176;49.156;7.810;2023-02-11T11:06:38;101107.63;;;6.32;67.49
75594;BME280;64176;49.156;7.810;2023-02-11T11:09:27;101101.78;;;6.18;68.02
75594;BME280;64176;49.156;7.810;2023-02-11T11:15:27;101090.38;;;6.45;66.92
75594;BME280;64176;49.156;7.810;2023-02-11T11:18:17;101087.63;;;6.42;67.38
75594;BME280;64176;49.156;7.810;2023-02-11T11:21:09;101107.19;;;6.56;67.19
75594;BME280;64176;49.156;7.810;2023-02-11T11:24:00;101092.69;;;6.41;67.54
75594;BME280;64176;49.156;7.810;2023-02-11T11:26:57;101094.75;;;6.64;67.43
75594;BME280;64176;49.156;7.810;2023-02-11T11:29:49;101101.91;;;6.87;66.73
75594;BME280;64176;49.156;7.810;2023-02-11T11:32:40;101097.00;;;6.58;66.90
75594;BME280;64176;49.156;7.810;2023-02-11T11:35:29;101093.22;;;6.68;67.01
75594;BME280;64176;49.156;7.810;2023-02-11T11:38:15;101088.63;;;6.78;67.25
75594;BME280;64176;49.156;7.810;2023-02-11T11:41:25;101116.00;;;6.78;67.13
75594;BME280;64176;49.156;7.810;2023-02-11T11:44:20;101103.88;;;6.75;67.61
75594;BME280;64176;49.156;7.810;2023-02-11T11:50:04;101100.28;;;6.72;67.56
75594;BME280;64176;49.156;7.810;2023-02-11T11:55:52;101097.38;;;6.66;68.17
75594;BME280;64176;49.156;7.810;2023-02-11T11:58:44;101100.91;;;6.84;67.93
75594;BME280;64176;49.156;7.810;2023-02-11T12:10:52;101083.47;;;6.78;67.70
75594;BME280;64176;49.156;7.810;2023-02-11T12:13:55;101101.78;;;6.84;67.85
75594;BME280;64176;49.156;7.810;2023-02-11T12:19:52;101077.69;;;7.00;67.03
75594;BME280;64176;49.156;7.810;2023-02-11T12:25:53;101064.19;;;7.04;66.76
75594;BME280;64176;49.156;7.810;2023-02-11T12:29:07;101069.47;;;7.07;66.98
75594;BME280;64176;49.156;7.810;2023-02-11T12:38:31;101062.50;;;7.22;67.13
75594;BME280;64176;49.156;7.810;2023-02-11T12:41:25;101059.19;;;7.43;66.61
75594;BME280;64176;49.156;7.810;2023-02-11T12:44:36;101052.28;;;7.24;67.23
75594;BME280;64176;49.156;7.810;2023-02-11T12:50:48;101058.81;;;7.35;67.38
75594;BME280;64176;49.156;7.810;2023-02-11T12:54:11;101051.53;;;7.44;67.43
75594;BME280;64176;49.156;7.810;2023-02-11T12:57:05;101048.78;;;7.40;67.50
75594;BME280;64176;49.156;7.810;2023-02-11T13:00:05;101046.69;;;7.32;67.61
75594;BME280;64176;49.156;7.810;2023-02-11T13:03:12;101047.06;;;7.22;67.99
75594;BME280;64176;49.156;7.810;2023-02-11T13:06:33;101055.81;;;7.26;67.89
75594;BME280;64176;49.156;7.810;2023-02-11T13:09:34;101049.41;;;7.36;67.75
75594;BME280;64176;49.156;7.810;2023-02-11T13:12:21;101027.00;;;7.33;67.45
75594;BME280;64176;49.156;7.810;2023-02-11T13:15:25;101044.03;;;7.49;67.40
75594;BME280;64176;49.156;7.810;2023-02-11T13:18:21;101047.19;;;7.43;67.41
75594;BME280;64176;49.156;7.810;2023-02-11T13:30:39;101039.41;;;7.59;67.58
75594;BME280;64176;49.156;7.810;2023-02-11T13:33:32;101035.22;;;7.61;67.53
75594;BME280;64176;49.156;7.810;2023-02-11T13:36:18;101036.28;;;7.66;67.34
75594;BME280;64176;49.156;7.810;2023-02-11T13:39:05;101050.03;;;7.67;67.85
75594;BME280;64176;49.156;7.810;2023-02-11T13:42:04;101040.59;;;7.48;67.93
75594;BME280;64176;49.156;7.810;2023-02-11T13:44:51;101045.59;;;7.45;67.99
75594;BME280;64176;49.156;7.810;2023-02-11T13:47:43;101043.34;;;7.53;68.20
75594;BME280;64176;49.156;7.810;2023-02-11T13:50:31;101044.13;;;7.50;68.10
75594;BME280;64176;49.156;7.810;2023-02-11T13:53:17;101033.53;;;7.44;68.80
75594;BME280;64176;49.156;7.810;2023-02-11T13:56:07;101045.28;;;7.57;68.50
75594;BME280;64176;49.156;7.810;2023-02-11T13:58:51;101042.69;;;7.57;68.52
75594;BME280;64176;49.156;7.810;2023-02-11T14:02:00;101052.72;;;7.51;69.04
75594;BME280;64176;49.156;7.810;2023-02-11T14:14:25;101042.75;;;7.39;69.85
75594;BME280;64176;49.156;7.810;2023-02-11T14:19:53;101035.22;;;7.44;69.34
75594;BME280;64176;49.156;7.810;2023-02-11T14:22:46;101039.25;;;7.56;68.43
75594;BME280;64176;49.156;7.810;2023-02-11T14:25:33;101041.56;;;7.50;68.65
75594;BME280;64176;49.156;7.810;2023-02-11T14:28:23;101040.59;;;7.48;68.66
75594;BME280;64176;49.156;7.810;2023-02-11T14:31:13;101029.41;;;7.48;68.15
75594;BME280;64176;49.156;7.810;2023-02-11T14:42:36;101035.06;;;7.41;68.97
75594;BME280;64176;49.156;7.810;2023-02-11T14:45:30;101032.38;;;7.38;69.28
75594;BME280;64176;49.156;7.810;2023-02-11T14:48:26;101042.50;;;7.35;69.05
75594;BME280;64176;49.156;7.810;2023-02-11T14:51:19;101031.00;;;7.26;69.53
75594;BME280;64176;49.156;7.810;2023-02-11T14:54:12;101041.06;;;7.22;69.70
75594;BME280;64176;49.156;7.810;2023-02-11T14:57:07;101042.66;;;7.20;69.90
75594;BME280;64176;49.156;7.810;2023-02-11T14:59:58;101038.56;;;7.23;69.42
75594;BME280;64176;49.156;7.810;2023-02-11T15:02:45;101048.50;;;7.16;69.80
75594;BME280;64176;49.156;7.810;2023-02-11T15:05:29;101051.19;;;7.19;69.66
75594;BME280;64176;49.156;7.810;2023-02-11T15:08:13;101038.84;;;7.12;69.52
75594;BME280;64176;49.156;7.810;2023-02-11T15:11:00;101059.78;;;7.19;69.46
75594;BME280;64176;49.156;7.810;2023-02-11T15:13:46;101060.47;;;7.15;69.28
75594;BME280;64176;49.156;7.810;2023-02-11T15:16:33;101060.81;;;7.05;70.13
75594;BME280;64176;49.156;7.810;2023-02-11T15:19:48;101065.00;;;7.03;70.00
75594;BME280;64176;49.156;7.810;2023-02-11T15:22:36;101062.28;;;7.00;69.93
75594;BME280;64176;49.156;7.810;2023-02-11T15:25:20;101074.31;;;7.01;70.60
75594;BME280;64176;49.156;7.810;2023-02-11T15:28:21;101074.47;;;7.04;70.64
75594;BME280;64176;49.156;7.810;2023-02-11T15:31:14;101079.63;;;7.04;70.88
75594;BME280;64176;49.156;7.810;2023-02-11T15:34:06;101083.00;;;7.03;70.74
75594;BME280;64176;49.156;7.810;2023-02-11T15:36:50;101084.59;;;7.01;70.70
75594;BME280;64176;49.156;7.810;2023-02-11T15:39:39;101068.75;;;6.92;71.21
75594;BME280;64176;49.156;7.810;2023-02-11T15:42:29;101081.59;;;6.92;71.46
75594;BME280;64176;49.156;7.810;2023-02-11T15:51:38;101089.22;;;6.90;71.50
75594;BME280;64176;49.156;7.810;2023-02-11T15:54:19;101090.03;;;6.89;71.36
75594;BME280;64176;49.156;7.810;2023-02-11T15:57:06;101087.22;;;6.85;71.08
75594;BME280;64176;49.156;7.810;2023-02-11T15:59:51;101091.50;;;6.84;70.75
75594;BME280;64176;49.156;7.810;2023-02-11T16:02:35;101089.75;;;6.83;71.24
75594;BME280;64176;49.156;7.810;2023-02-11T16:05:33;101098.81;;;6.77;71.68
75594;BME280;64176;49.156;7.810;2023-02-11T16:08:26;101088.97;;;6.68;72.07
75594;BME280;64176;49.156;7.810;2023-02-11T16:11:31;101095.88;;;6.69;71.92
75594;BME280;64176;49.156;7.810;2023-02-11T16:17:26;101107.28;;;6.58;72.90
75594;BME280;64176;49.156;7.810;2023-02-11T16:20:18;101092.75;;;6.42;73.62
75594;BME280;64176;49.156;7.810;2023-02-11T16:23:04;101118.06;;;6.51;73.47
75594;BME280;64176;49.156;7.810;2023-02-11T16:26:29;101111.88;;;6.47;73.56
75594;BME280;64176;49.156;7.810;2023-02-11T16:29:30;101117.72;;;6.45;74.08
75594;BME280;64176;49.156;7.810;2023-02-11T16:32:21;101124.63;;;6.46;73.96
75594;BME280;64176;49.156;7.810;2023-02-11T16:35:09;101123.75;;;6.45;73.72
75594;BME280;64176;49.156;7.810;2023-02-11T16:37:54;101108.50;;;6.32;73.88
75594;BME280;64176;49.156;7.810;2023-02-11T16:40:38;101120.28;;;6.45;74.37
75594;BME280;64176;49.156;7.810;2023-02-11T16:43:22;101117.25;;;6.36;74.46